Terminal Aerodrome Forecast
Issued by NWS

Home | Current Version | Previous Version | Text Only | Print | Product List | Glossary On
Versions: 1 2 3 4 5 6 7 8 9 10 11 12 13 14 15
136
FTUS45 KTFX 251120
TAFLWT
TAF
KLWT 251120Z 2512/2612 20008KT P6SM SKC
      TEMPO 2512/2515 14006KT
     FM251800 30017KT P6SM SCT250
     FM252100 32014G23KT P6SM SCT050 BKN090 PROB30 2601/2602 4SM -RA
      BKN020
     FM260200 33009KT P6SM FEW020 SCT090=

USA.gov is the U.S. government's official web portal to all federal, state and local government web resources and services.